sensor_id;sensor_type;location;lat;lon;timestamp;P1;durP1;ratioP1;P2;durP2;ratioP2
7557;SDS011;3820;51.098;13.716;2022-11-15T00:02:02;28.63;;;10.93;;
7557;SDS011;3820;51.098;13.716;2022-11-15T00:04:30;29.90;;;13.03;;
7557;SDS011;3820;51.098;13.716;2022-11-15T00:06:57;27.83;;;11.87;;
7557;SDS011;3820;51.098;13.716;2022-11-15T00:09:23;30.30;;;12.17;;
7557;SDS011;3820;51.098;13.716;2022-11-15T00:11:51;29.40;;;12.87;;
7557;SDS011;3820;51.098;13.716;2022-11-15T00:14:18;30.43;;;13.30;;
7557;SDS011;3820;51.098;13.716;2022-11-15T00:16:45;30.63;;;13.53;;
7557;SDS011;3820;51.098;13.716;2022-11-15T00:19:11;37.97;;;12.30;;
7557;SDS011;3820;51.098;13.716;2022-11-15T00:21:40;27.97;;;12.03;;
7557;SDS011;3820;51.098;13.716;2022-11-15T00:24:06;33.27;;;12.60;;
7557;SDS011;3820;51.098;13.716;2022-11-15T00:26:34;34.93;;;12.53;;
7557;SDS011;3820;51.098;13.716;2022-11-15T00:29:02;30.43;;;12.83;;
7557;SDS011;3820;51.098;13.716;2022-11-15T00:31:28;32.77;;;13.10;;
7557;SDS011;3820;51.098;13.716;2022-11-15T00:33:55;33.17;;;13.17;;
7557;SDS011;3820;51.098;13.716;2022-11-15T00:36:23;28.73;;;13.20;;
7557;SDS011;3820;51.098;13.716;2022-11-15T00:38:51;27.53;;;13.20;;
7557;SDS011;3820;51.098;13.716;2022-11-15T00:41:19;31.87;;;13.47;;
7557;SDS011;3820;51.098;13.716;2022-11-15T00:43:45;28.30;;;12.60;;
7557;SDS011;3820;51.098;13.716;2022-11-15T00:46:12;28.40;;;12.77;;
7557;SDS011;3820;51.098;13.716;2022-11-15T00:48:38;32.07;;;13.20;;
7557;SDS011;3820;51.098;13.716;2022-11-15T00:51:05;28.73;;;12.47;;
7557;SDS011;3820;51.098;13.716;2022-11-15T00:53:32;29.63;;;12.53;;
7557;SDS011;3820;51.098;13.716;2022-11-15T00:55:59;34.03;;;12.97;;
7557;SDS011;3820;51.098;13.716;2022-11-15T00:58:25;30.37;;;12.27;;
7557;SDS011;3820;51.098;13.716;2022-11-15T01:00:53;35.30;;;13.47;;
7557;SDS011;3820;51.098;13.716;2022-11-15T01:03:21;29.33;;;13.40;;
7557;SDS011;3820;51.098;13.716;2022-11-15T01:05:48;31.13;;;13.03;;
7557;SDS011;3820;51.098;13.716;2022-11-15T01:08:16;34.87;;;13.57;;
7557;SDS011;3820;51.098;13.716;2022-11-15T01:10:54;32.37;;;13.77;;
7557;SDS011;3820;51.098;13.716;2022-11-15T01:13:22;33.60;;;12.63;;
7557;SDS011;3820;51.098;13.716;2022-11-15T01:15:49;42.00;;;14.57;;
7557;SDS011;3820;51.098;13.716;2022-11-15T01:21:27;32.37;;;13.73;;
7557;SDS011;3820;51.098;13.716;2022-11-15T01:23:55;29.50;;;13.03;;
7557;SDS011;3820;51.098;13.716;2022-11-15T01:26:22;33.47;;;14.23;;
7557;SDS011;3820;51.098;13.716;2022-11-15T01:28:49;38.10;;;14.13;;
7557;SDS011;3820;51.098;13.716;2022-11-15T01:31:17;31.97;;;13.13;;
7557;SDS011;3820;51.098;13.716;2022-11-15T01:33:46;34.87;;;13.37;;
7557;SDS011;3820;51.098;13.716;2022-11-15T01:36:14;40.97;;;14.60;;
7557;SDS011;3820;51.098;13.716;2022-11-15T01:38:43;39.93;;;13.50;;
7557;SDS011;3820;51.098;13.716;2022-11-15T01:41:14;35.73;;;13.27;;
7557;SDS011;3820;51.098;13.716;2022-11-15T01:43:46;33.73;;;14.00;;
7557;SDS011;3820;51.098;13.716;2022-11-15T01:48:56;35.30;;;14.13;;
7557;SDS011;3820;51.098;13.716;2022-11-15T01:51:24;26.33;;;11.13;;
7557;SDS011;3820;51.098;13.716;2022-11-15T01:53:52;37.87;;;13.93;;
7557;SDS011;3820;51.098;13.716;2022-11-15T01:56:23;34.07;;;13.37;;
7557;SDS011;3820;51.098;13.716;2022-11-15T01:58:52;35.00;;;12.83;;
7557;SDS011;3820;51.098;13.716;2022-11-15T02:01:19;31.10;;;11.80;;
7557;SDS011;3820;51.098;13.716;2022-11-15T02:03:56;30.37;;;11.47;;
7557;SDS011;3820;51.098;13.716;2022-11-15T02:06:25;33.97;;;15.63;;
7557;SDS011;3820;51.098;13.716;2022-11-15T02:08:52;34.67;;;12.97;;
7557;SDS011;3820;51.098;13.716;2022-11-15T02:11:19;37.10;;;12.87;;
7557;SDS011;3820;51.098;13.716;2022-11-15T02:13:46;28.67;;;11.60;;
7557;SDS011;3820;51.098;13.716;2022-11-15T02:16:14;31.07;;;11.77;;
7557;SDS011;3820;51.098;13.716;2022-11-15T02:19:15;36.30;;;13.63;;
7557;SDS011;3820;51.098;13.716;2022-11-15T02:27:25;34.97;;;13.03;;
7557;SDS011;3820;51.098;13.716;2022-11-15T02:32:58;34.40;;;11.97;;
7557;SDS011;3820;51.098;13.716;2022-11-15T02:38:45;35.97;;;12.83;;
7557;SDS011;3820;51.098;13.716;2022-11-15T02:41:15;33.90;;;13.07;;
7557;SDS011;3820;51.098;13.716;2022-11-15T02:46:53;31.70;;;12.70;;
7557;SDS011;3820;51.098;13.716;2022-11-15T02:49:40;25.83;;;11.47;;
7557;SDS011;3820;51.098;13.716;2022-11-15T02:52:22;29.60;;;11.30;;
7557;SDS011;3820;51.098;13.716;2022-11-15T02:54:53;31.87;;;13.00;;
7557;SDS011;3820;51.098;13.716;2022-11-15T03:00:34;27.93;;;11.07;;
7557;SDS011;3820;51.098;13.716;2022-11-15T03:11:52;26.70;;;10.97;;
7557;SDS011;3820;51.098;13.716;2022-11-15T03:14:25;33.13;;;12.77;;
7557;SDS011;3820;51.098;13.716;2022-11-15T03:16:59;32.30;;;12.83;;
7557;SDS011;3820;51.098;13.716;2022-11-15T03:19:34;31.60;;;11.67;;
7557;SDS011;3820;51.098;13.716;2022-11-15T03:22:08;29.23;;;11.93;;
7557;SDS011;3820;51.098;13.716;2022-11-15T03:24:38;27.43;;;10.80;;
7557;SDS011;3820;51.098;13.716;2022-11-15T03:27:07;33.60;;;12.80;;
7557;SDS011;3820;51.098;13.716;2022-11-15T03:29:37;27.40;;;11.70;;
7557;SDS011;3820;51.098;13.716;2022-11-15T03:32:16;27.63;;;12.17;;
7557;SDS011;3820;51.098;13.716;2022-11-15T03:34:47;30.73;;;12.20;;
7557;SDS011;3820;51.098;13.716;2022-11-15T03:37:16;32.00;;;13.23;;
7557;SDS011;3820;51.098;13.716;2022-11-15T03:39:43;29.73;;;12.43;;
7557;SDS011;3820;51.098;13.716;2022-11-15T03:44:58;28.53;;;12.30;;
7557;SDS011;3820;51.098;13.716;2022-11-15T03:47:30;27.27;;;10.47;;
7557;SDS011;3820;51.098;13.716;2022-11-15T03:50:00;24.93;;;9.57;;
7557;SDS011;3820;51.098;13.716;2022-11-15T03:52:31;27.00;;;13.10;;
7557;SDS011;3820;51.098;13.716;2022-11-15T03:54:59;28.97;;;12.93;;
7557;SDS011;3820;51.098;13.716;2022-11-15T03:57:27;22.67;;;9.93;;
7557;SDS011;3820;51.098;13.716;2022-11-15T03:59:54;26.50;;;12.87;;
7557;SDS011;3820;51.098;13.716;2022-11-15T04:02:20;30.30;;;11.63;;
7557;SDS011;3820;51.098;13.716;2022-11-15T04:04:47;26.10;;;10.23;;
7557;SDS011;3820;51.098;13.716;2022-11-15T04:07:13;33.70;;;11.23;;
7557;SDS011;3820;51.098;13.716;2022-11-15T04:09:40;22.73;;;9.47;;
7557;SDS011;3820;51.098;13.716;2022-11-15T04:12:25;27.13;;;11.13;;
7557;SDS011;3820;51.098;13.716;2022-11-15T04:15:04;24.47;;;10.33;;
7557;SDS011;3820;51.098;13.716;2022-11-15T04:20:07;21.33;;;9.63;;
7557;SDS011;3820;51.098;13.716;2022-11-15T04:23:17;27.07;;;10.37;;
7557;SDS011;3820;51.098;13.716;2022-11-15T04:26:04;21.23;;;9.83;;
7557;SDS011;3820;51.098;13.716;2022-11-15T04:28:33;21.60;;;9.47;;
7557;SDS011;3820;51.098;13.716;2022-11-15T04:31:00;26.83;;;11.27;;
7557;SDS011;3820;51.098;13.716;2022-11-15T04:33:26;29.40;;;11.90;;
7557;SDS011;3820;51.098;13.716;2022-11-15T04:35:53;24.40;;;10.53;;
7557;SDS011;3820;51.098;13.716;2022-11-15T04:38:38;21.27;;;9.30;;
7557;SDS011;3820;51.098;13.716;2022-11-15T04:41:04;25.50;;;11.63;;
7557;SDS011;3820;51.098;13.716;2022-11-15T04:43:30;23.70;;;9.70;;
7557;SDS011;3820;51.098;13.716;2022-11-15T04:45:57;28.00;;;9.90;;
7557;SDS011;3820;51.098;13.716;2022-11-15T04:48:24;32.60;;;11.70;;
7557;SDS011;3820;51.098;13.716;2022-11-15T04:50:50;26.20;;;9.67;;
7557;SDS011;3820;51.098;13.716;2022-11-15T04:53:17;27.77;;;10.70;;
7557;SDS011;3820;51.098;13.716;2022-11-15T04:55:46;23.07;;;10.37;;
7557;SDS011;3820;51.098;13.716;2022-11-15T04:58:13;25.07;;;11.00;;
7557;SDS011;3820;51.098;13.716;2022-11-15T05:00:39;22.90;;;9.87;;
7557;SDS011;3820;51.098;13.716;2022-11-15T05:03:06;23.87;;;9.17;;
7557;SDS011;3820;51.098;13.716;2022-11-15T05:05:51;23.57;;;9.17;;
7557;SDS011;3820;51.098;13.716;2022-11-15T05:08:18;29.70;;;11.93;;
7557;SDS011;3820;51.098;13.716;2022-11-15T05:10:44;26.63;;;10.60;;
7557;SDS011;3820;51.098;13.716;2022-11-15T05:13:11;18.23;;;8.90;;
7557;SDS011;3820;51.098;13.716;2022-11-15T05:15:37;25.60;;;10.17;;
7557;SDS011;3820;51.098;13.716;2022-11-15T05:18:03;28.53;;;9.77;;
7557;SDS011;3820;51.098;13.716;2022-11-15T05:20:30;23.30;;;9.17;;
7557;SDS011;3820;51.098;13.716;2022-11-15T05:22:56;24.80;;;10.40;;
7557;SDS011;3820;51.098;13.716;2022-11-15T05:25:23;22.67;;;9.07;;
7557;SDS011;3820;51.098;13.716;2022-11-15T05:27:49;21.77;;;8.80;;
7557;SDS011;3820;51.098;13.716;2022-11-15T05:30:16;20.63;;;8.23;;
7557;SDS011;3820;51.098;13.716;2022-11-15T05:32:43;22.73;;;9.67;;
7557;SDS011;3820;51.098;13.716;2022-11-15T05:35:12;19.57;;;8.73;;
7557;SDS011;3820;51.098;13.716;2022-11-15T05:37:41;24.50;;;9.80;;
7557;SDS011;3820;51.098;13.716;2022-11-15T05:40:08;21.13;;;9.50;;
7557;SDS011;3820;51.098;13.716;2022-11-15T05:42:34;18.27;;;9.10;;
7557;SDS011;3820;51.098;13.716;2022-11-15T05:45:04;18.67;;;8.97;;
7557;SDS011;3820;51.098;13.716;2022-11-15T05:47:32;17.80;;;8.43;;
7557;SDS011;3820;51.098;13.716;2022-11-15T05:50:00;20.37;;;8.53;;
7557;SDS011;3820;51.098;13.716;2022-11-15T05:52:27;23.87;;;9.87;;
7557;SDS011;3820;51.098;13.716;2022-11-15T05:54:57;23.77;;;10.83;;
7557;SDS011;3820;51.098;13.716;2022-11-15T05:57:24;20.77;;;8.83;;
7557;SDS011;3820;51.098;13.716;2022-11-15T05:59:50;18.20;;;7.77;;
7557;SDS011;3820;51.098;13.716;2022-11-15T06:02:17;21.20;;;9.53;;
7557;SDS011;3820;51.098;13.716;2022-11-15T06:04:43;22.63;;;9.53;;
7557;SDS011;3820;51.098;13.716;2022-11-15T06:07:10;22.30;;;8.13;;
7557;SDS011;3820;51.098;13.716;2022-11-15T06:09:36;40.07;;;17.47;;
7557;SDS011;3820;51.098;13.716;2022-11-15T06:12:03;32.67;;;16.10;;
7557;SDS011;3820;51.098;13.716;2022-11-15T06:14:29;29.60;;;12.70;;
7557;SDS011;3820;51.098;13.716;2022-11-15T06:16:56;120.27;;;47.53;;
7557;SDS011;3820;51.098;13.716;2022-11-15T06:19:22;28.47;;;13.27;;
7557;SDS011;3820;51.098;13.716;2022-11-15T06:21:49;27.03;;;10.83;;
7557;SDS011;3820;51.098;13.716;2022-11-15T06:24:15;27.10;;;12.13;;
7557;SDS011;3820;51.098;13.716;2022-11-15T06:26:42;30.87;;;10.87;;
7557;SDS011;3820;51.098;13.716;2022-11-15T06:29:08;23.60;;;10.90;;
7557;SDS011;3820;51.098;13.716;2022-11-15T06:31:36;19.10;;;10.10;;
7557;SDS011;3820;51.098;13.716;2022-11-15T06:34:02;27.20;;;10.60;;
7557;SDS011;3820;51.098;13.716;2022-11-15T06:36:28;21.97;;;9.50;;
7557;SDS011;3820;51.098;13.716;2022-11-15T06:38:56;27.77;;;11.10;;
7557;SDS011;3820;51.098;13.716;2022-11-15T06:41:22;25.63;;;9.90;;
7557;SDS011;3820;51.098;13.716;2022-11-15T06:43:49;22.33;;;9.13;;
7557;SDS011;3820;51.098;13.716;2022-11-15T06:46:15;24.03;;;9.60;;
7557;SDS011;3820;51.098;13.716;2022-11-15T06:48:41;23.80;;;9.40;;
7557;SDS011;3820;51.098;13.716;2022-11-15T06:51:08;20.90;;;9.83;;
7557;SDS011;3820;51.098;13.716;2022-11-15T06:53:35;21.27;;;10.10;;
7557;SDS011;3820;51.098;13.716;2022-11-15T06:56:05;19.67;;;9.67;;
7557;SDS011;3820;51.098;13.716;2022-11-15T06:58:32;23.30;;;9.63;;
7557;SDS011;3820;51.098;13.716;2022-11-15T07:00:59;24.30;;;10.93;;
7557;SDS011;3820;51.098;13.716;2022-11-15T07:03:27;16.60;;;8.17;;
7557;SDS011;3820;51.098;13.716;2022-11-15T07:05:54;21.13;;;9.00;;
7557;SDS011;3820;51.098;13.716;2022-11-15T07:08:22;24.10;;;8.67;;
7557;SDS011;3820;51.098;13.716;2022-11-15T07:10:49;27.23;;;9.10;;
7557;SDS011;3820;51.098;13.716;2022-11-15T07:13:16;23.33;;;10.80;;
7557;SDS011;3820;51.098;13.716;2022-11-15T07:15:42;22.53;;;9.93;;
7557;SDS011;3820;51.098;13.716;2022-11-15T07:18:09;20.23;;;9.50;;
7557;SDS011;3820;51.098;13.716;2022-11-15T07:20:35;23.70;;;9.40;;
7557;SDS011;3820;51.098;13.716;2022-11-15T07:23:02;18.87;;;9.23;;
7557;SDS011;3820;51.098;13.716;2022-11-15T07:25:29;21.77;;;10.97;;
7557;SDS011;3820;51.098;13.716;2022-11-15T07:27:57;25.37;;;10.33;;
7557;SDS011;3820;51.098;13.716;2022-11-15T07:30:25;20.60;;;10.10;;
7557;SDS011;3820;51.098;13.716;2022-11-15T07:32:53;28.63;;;11.10;;
7557;SDS011;3820;51.098;13.716;2022-11-15T07:35:23;23.50;;;10.23;;
7557;SDS011;3820;51.098;13.716;2022-11-15T07:38:00;32.87;;;10.70;;
7557;SDS011;3820;51.098;13.716;2022-11-15T07:40:28;23.67;;;10.07;;
7557;SDS011;3820;51.098;13.716;2022-11-15T07:42:59;29.07;;;10.20;;
7557;SDS011;3820;51.098;13.716;2022-11-15T07:45:29;18.40;;;8.67;;
7557;SDS011;3820;51.098;13.716;2022-11-15T07:47:56;23.43;;;9.23;;
7557;SDS011;3820;51.098;13.716;2022-11-15T07:50:23;22.20;;;8.27;;
7557;SDS011;3820;51.098;13.716;2022-11-15T07:52:56;21.60;;;8.87;;
7557;SDS011;3820;51.098;13.716;2022-11-15T07:55:24;16.83;;;8.37;;
7557;SDS011;3820;51.098;13.716;2022-11-15T07:57:51;19.57;;;8.23;;
7557;SDS011;3820;51.098;13.716;2022-11-15T08:00:18;22.57;;;8.40;;
7557;SDS011;3820;51.098;13.716;2022-11-15T08:02:45;21.87;;;9.27;;
7557;SDS011;3820;51.098;13.716;2022-11-15T08:05:12;16.67;;;7.90;;
7557;SDS011;3820;51.098;13.716;2022-11-15T08:07:38;20.30;;;8.80;;
7557;SDS011;3820;51.098;13.716;2022-11-15T08:10:06;17.97;;;7.37;;
7557;SDS011;3820;51.098;13.716;2022-11-15T08:12:34;19.17;;;8.97;;
7557;SDS011;3820;51.098;13.716;2022-11-15T08:15:01;20.43;;;7.33;;
7557;SDS011;3820;51.098;13.716;2022-11-15T08:17:27;18.40;;;7.67;;
7557;SDS011;3820;51.098;13.716;2022-11-15T08:19:58;14.83;;;7.40;;
7557;SDS011;3820;51.098;13.716;2022-11-15T08:22:24;14.37;;;7.47;;
7557;SDS011;3820;51.098;13.716;2022-11-15T08:24:51;15.20;;;6.37;;
7557;SDS011;3820;51.098;13.716;2022-11-15T08:27:17;17.27;;;7.67;;
7557;SDS011;3820;51.098;13.716;2022-11-15T08:29:44;14.67;;;7.40;;
7557;SDS011;3820;51.098;13.716;2022-11-15T08:32:11;13.90;;;7.63;;
7557;SDS011;3820;51.098;13.716;2022-11-15T08:34:38;15.80;;;6.33;;
7557;SDS011;3820;51.098;13.716;2022-11-15T08:37:04;16.42;;;7.95;;
7557;SDS011;3820;51.098;13.716;2022-11-15T08:39:31;15.93;;;6.68;;
7557;SDS011;3820;51.098;13.716;2022-11-15T08:41:58;13.70;;;6.93;;
7557;SDS011;3820;51.098;13.716;2022-11-15T08:44:24;14.40;;;7.25;;
7557;SDS011;3820;51.098;13.716;2022-11-15T08:46:51;14.43;;;6.85;;
7557;SDS011;3820;51.098;13.716;2022-11-15T08:49:18;16.15;;;6.72;;
7557;SDS011;3820;51.098;13.716;2022-11-15T08:51:44;14.15;;;7.43;;
7557;SDS011;3820;51.098;13.716;2022-11-15T08:54:11;10.15;;;5.78;;
7557;SDS011;3820;51.098;13.716;2022-11-15T08:56:37;12.82;;;6.15;;
7557;SDS011;3820;51.098;13.716;2022-11-15T08:59:04;14.70;;;7.23;;
7557;SDS011;3820;51.098;13.716;2022-11-15T09:01:30;12.13;;;6.22;;
7557;SDS011;3820;51.098;13.716;2022-11-15T09:03:58;12.10;;;6.00;;
7557;SDS011;3820;51.098;13.716;2022-11-15T09:06:25;12.17;;;6.13;;
7557;SDS011;3820;51.098;13.716;2022-11-15T09:08:51;14.53;;;7.10;;
7557;SDS011;3820;51.098;13.716;2022-11-15T09:11:18;15.07;;;7.07;;
7557;SDS011;3820;51.098;13.716;2022-11-15T09:13:47;15.87;;;6.60;;
7557;SDS011;3820;51.098;13.716;2022-11-15T09:16:14;15.30;;;6.33;;
7557;SDS011;3820;51.098;13.716;2022-11-15T09:18:42;14.27;;;6.97;;
7557;SDS011;3820;51.098;13.716;2022-11-15T09:21:09;13.90;;;6.78;;
7557;SDS011;3820;51.098;13.716;2022-11-15T09:23:35;16.92;;;6.90;;
7557;SDS011;3820;51.098;13.716;2022-11-15T09:26:03;13.05;;;7.03;;
7557;SDS011;3820;51.098;13.716;2022-11-15T09:28:31;11.82;;;5.78;;
7557;SDS011;3820;51.098;13.716;2022-11-15T09:30:59;16.60;;;7.18;;
7557;SDS011;3820;51.098;13.716;2022-11-15T09:33:27;13.35;;;7.05;;
7557;SDS011;3820;51.098;13.716;2022-11-15T09:35:53;15.18;;;6.55;;
7557;SDS011;3820;51.098;13.716;2022-11-15T09:38:20;15.68;;;6.30;;
7557;SDS011;3820;51.098;13.716;2022-11-15T09:40:48;12.13;;;5.93;;
7557;SDS011;3820;51.098;13.716;2022-11-15T09:46:11;15.50;;;6.63;;
7557;SDS011;3820;51.098;13.716;2022-11-15T09:48:52;12.90;;;6.68;;
7557;SDS011;3820;51.098;13.716;2022-11-15T09:51:23;15.27;;;6.25;;
7557;SDS011;3820;51.098;13.716;2022-11-15T09:54:03;12.15;;;6.78;;
7557;SDS011;3820;51.098;13.716;2022-11-15T09:57:11;12.55;;;6.15;;
7557;SDS011;3820;51.098;13.716;2022-11-15T09:59:51;14.52;;;6.43;;
7557;SDS011;3820;51.098;13.716;2022-11-15T10:02:43;13.68;;;6.43;;
7557;SDS011;3820;51.098;13.716;2022-11-15T10:05:19;13.00;;;5.82;;
7557;SDS011;3820;51.098;13.716;2022-11-15T10:08:10;14.18;;;6.45;;
7557;SDS011;3820;51.098;13.716;2022-11-15T10:10:47;15.63;;;7.43;;
7557;SDS011;3820;51.098;13.716;2022-11-15T10:13:37;13.88;;;6.65;;
7557;SDS011;3820;51.098;13.716;2022-11-15T10:16:16;14.45;;;6.22;;
7557;SDS011;3820;51.098;13.716;2022-11-15T10:18:50;13.70;;;6.28;;
7557;SDS011;3820;51.098;13.716;2022-11-15T10:21:19;11.88;;;5.38;;
7557;SDS011;3820;51.098;13.716;2022-11-15T10:23:48;11.23;;;5.50;;
7557;SDS011;3820;51.098;13.716;2022-11-15T10:26:15;10.85;;;5.60;;
7557;SDS011;3820;51.098;13.716;2022-11-15T10:28:43;13.57;;;6.43;;
7557;SDS011;3820;51.098;13.716;2022-11-15T10:31:23;13.73;;;6.65;;
7557;SDS011;3820;51.098;13.716;2022-11-15T10:33:56;11.50;;;6.07;;
7557;SDS011;3820;51.098;13.716;2022-11-15T10:36:32;16.08;;;7.07;;
7557;SDS011;3820;51.098;13.716;2022-11-15T10:38:58;12.85;;;6.55;;
7557;SDS011;3820;51.098;13.716;2022-11-15T10:46:34;12.30;;;6.07;;
7557;SDS011;3820;51.098;13.716;2022-11-15T10:49:18;10.77;;;6.60;;
7557;SDS011;3820;51.098;13.716;2022-11-15T10:51:49;10.93;;;5.57;;
7557;SDS011;3820;51.098;13.716;2022-11-15T10:54:27;11.85;;;5.43;;
7557;SDS011;3820;51.098;13.716;2022-11-15T10:56:57;13.05;;;6.50;;
7557;SDS011;3820;51.098;13.716;2022-11-15T10:59:31;9.82;;;5.60;;
7557;SDS011;3820;51.098;13.716;2022-11-15T11:04:55;13.93;;;6.55;;
7557;SDS011;3820;51.098;13.716;2022-11-15T11:07:24;11.18;;;5.65;;
7557;SDS011;3820;51.098;13.716;2022-11-15T11:10:01;12.10;;;6.50;;
7557;SDS011;3820;51.098;13.716;2022-11-15T11:12:28;11.47;;;5.83;;
7557;SDS011;3820;51.098;13.716;2022-11-15T11:15:00;11.27;;;5.78;;
7557;SDS011;3820;51.098;13.716;2022-11-15T11:20:40;9.63;;;5.43;;
7557;SDS011;3820;51.098;13.716;2022-11-15T11:31:43;11.10;;;5.70;;
7557;SDS011;3820;51.098;13.716;2022-11-15T11:34:23;14.27;;;6.13;;
7557;SDS011;3820;51.098;13.716;2022-11-15T11:37:19;9.60;;;6.03;;
7557;SDS011;3820;51.098;13.716;2022-11-15T11:39:54;12.68;;;6.40;;
7557;SDS011;3820;51.098;13.716;2022-11-15T11:47:40;10.63;;;5.30;;
7557;SDS011;3820;51.098;13.716;2022-11-15T11:50:21;12.50;;;5.82;;
7557;SDS011;3820;51.098;13.716;2022-11-15T11:53:05;12.55;;;6.78;;
7557;SDS011;3820;51.098;13.716;2022-11-15T11:55:40;12.25;;;5.00;;
7557;SDS011;3820;51.098;13.716;2022-11-15T11:58:12;13.57;;;5.72;;
7557;SDS011;3820;51.098;13.716;2022-11-15T12:00:47;12.10;;;6.03;;
7557;SDS011;3820;51.098;13.716;2022-11-15T12:06:41;18.23;;;6.38;;
7557;SDS011;3820;51.098;13.716;2022-11-15T12:09:17;13.65;;;6.15;;
7557;SDS011;3820;51.098;13.716;2022-11-15T12:11:52;11.95;;;6.20;;
7557;SDS011;3820;51.098;13.716;2022-11-15T12:17:24;14.02;;;5.95;;
7557;SDS011;3820;51.098;13.716;2022-11-15T12:19:52;10.65;;;5.15;;
7557;SDS011;3820;51.098;13.716;2022-11-15T12:22:26;13.18;;;6.50;;
7557;SDS011;3820;51.098;13.716;2022-11-15T12:25:05;11.05;;;5.47;;
7557;SDS011;3820;51.098;13.716;2022-11-15T12:27:36;12.45;;;5.93;;
7557;SDS011;3820;51.098;13.716;2022-11-15T12:30:16;12.77;;;5.90;;
7557;SDS011;3820;51.098;13.716;2022-11-15T12:32:52;11.18;;;5.75;;
7557;SDS011;3820;51.098;13.716;2022-11-15T12:35:34;14.00;;;6.38;;
7557;SDS011;3820;51.098;13.716;2022-11-15T12:38:03;10.43;;;6.35;;
7557;SDS011;3820;51.098;13.716;2022-11-15T12:40:32;12.60;;;5.80;;
7557;SDS011;3820;51.098;13.716;2022-11-15T12:43:46;10.88;;;5.50;;
7557;SDS011;3820;51.098;13.716;2022-11-15T12:46:02;10.93;;;5.15;;
7557;SDS011;3820;51.098;13.716;2022-11-15T12:51:03;11.15;;;5.47;;
7557;SDS011;3820;51.098;13.716;2022-11-15T12:53:31;11.43;;;6.13;;
7557;SDS011;3820;51.098;13.716;2022-11-15T12:58:45;10.32;;;5.38;;
7557;SDS011;3820;51.098;13.716;2022-11-15T13:06:47;11.35;;;5.10;;
7557;SDS011;3820;51.098;13.716;2022-11-15T13:14:54;10.63;;;5.53;;
7557;SDS011;3820;51.098;13.716;2022-11-15T13:17:30;9.90;;;5.75;;
7557;SDS011;3820;51.098;13.716;2022-11-15T13:20:01;11.02;;;5.38;;
7557;SDS011;3820;51.098;13.716;2022-11-15T13:22:44;8.77;;;4.72;;
7557;SDS011;3820;51.098;13.716;2022-11-15T13:33:30;11.88;;;6.15;;
7557;SDS011;3820;51.098;13.716;2022-11-15T13:36:23;11.60;;;5.85;;
7557;SDS011;3820;51.098;13.716;2022-11-15T13:38:57;11.65;;;5.68;;
7557;SDS011;3820;51.098;13.716;2022-11-15T13:41:34;11.17;;;5.37;;
7557;SDS011;3820;51.098;13.716;2022-11-15T13:44:03;13.10;;;6.00;;
7557;SDS011;3820;51.098;13.716;2022-11-15T13:46:33;15.65;;;6.20;;
7557;SDS011;3820;51.098;13.716;2022-11-15T13:49:00;12.65;;;6.20;;
7557;SDS011;3820;51.098;13.716;2022-11-15T13:54:17;14.60;;;5.88;;
7557;SDS011;3820;51.098;13.716;2022-11-15T13:56:45;11.80;;;6.37;;
7557;SDS011;3820;51.098;13.716;2022-11-15T14:01:53;13.57;;;5.45;;
7557;SDS011;3820;51.098;13.716;2022-11-15T14:04:22;11.65;;;6.05;;
7557;SDS011;3820;51.098;13.716;2022-11-15T14:06:52;13.07;;;5.47;;
7557;SDS011;3820;51.098;13.716;2022-11-15T14:09:36;11.85;;;5.78;;
7557;SDS011;3820;51.098;13.716;2022-11-15T14:12:22;13.73;;;6.25;;
7557;SDS011;3820;51.098;13.716;2022-11-15T14:14:55;13.67;;;6.07;;
7557;SDS011;3820;51.098;13.716;2022-11-15T14:19:56;12.47;;;5.93;;
7557;SDS011;3820;51.098;13.716;2022-11-15T14:22:24;16.03;;;6.30;;
7557;SDS011;3820;51.098;13.716;2022-11-15T14:27:36;12.77;;;5.77;;
7557;SDS011;3820;51.098;13.716;2022-11-15T14:30:03;13.17;;;5.40;;
7557;SDS011;3820;51.098;13.716;2022-11-15T14:32:37;13.53;;;6.20;;
7557;SDS011;3820;51.098;13.716;2022-11-15T14:35:11;14.73;;;6.20;;
7557;SDS011;3820;51.098;13.716;2022-11-15T14:37:41;17.43;;;6.73;;
7557;SDS011;3820;51.098;13.716;2022-11-15T14:40:08;11.67;;;5.90;;
7557;SDS011;3820;51.098;13.716;2022-11-15T14:42:37;15.03;;;6.70;;
7557;SDS011;3820;51.098;13.716;2022-11-15T14:45:14;15.43;;;6.83;;
7557;SDS011;3820;51.098;13.716;2022-11-15T14:47:42;15.87;;;7.00;;
7557;SDS011;3820;51.098;13.716;2022-11-15T14:50:12;15.40;;;6.90;;
7557;SDS011;3820;51.098;13.716;2022-11-15T14:52:40;14.20;;;6.60;;
7557;SDS011;3820;51.098;13.716;2022-11-15T14:55:23;13.90;;;5.87;;
7557;SDS011;3820;51.098;13.716;2022-11-15T14:57:51;14.13;;;6.03;;
7557;SDS011;3820;51.098;13.716;2022-11-15T15:00:21;18.97;;;6.60;;
7557;SDS011;3820;51.098;13.716;2022-11-15T15:02:48;15.57;;;6.70;;
7557;SDS011;3820;51.098;13.716;2022-11-15T15:05:19;15.97;;;7.70;;
7557;SDS011;3820;51.098;13.716;2022-11-15T15:07:47;15.83;;;6.63;;
7557;SDS011;3820;51.098;13.716;2022-11-15T15:10:14;16.50;;;6.90;;
7557;SDS011;3820;51.098;13.716;2022-11-15T15:13:02;14.60;;;5.53;;
7557;SDS011;3820;51.098;13.716;2022-11-15T15:15:33;16.07;;;6.20;;
7557;SDS011;3820;51.098;13.716;2022-11-15T15:18:01;15.93;;;7.33;;
7557;SDS011;3820;51.098;13.716;2022-11-15T15:20:28;14.77;;;6.57;;
7557;SDS011;3820;51.098;13.716;2022-11-15T15:22:55;17.90;;;7.23;;
7557;SDS011;3820;51.098;13.716;2022-11-15T15:25:34;16.70;;;6.60;;
7557;SDS011;3820;51.098;13.716;2022-11-15T15:28:01;16.97;;;7.03;;
7557;SDS011;3820;51.098;13.716;2022-11-15T15:30:29;15.70;;;6.17;;
7557;SDS011;3820;51.098;13.716;2022-11-15T15:32:56;17.13;;;8.13;;
7557;SDS011;3820;51.098;13.716;2022-11-15T15:35:22;17.77;;;7.63;;
7557;SDS011;3820;51.098;13.716;2022-11-15T15:37:49;16.90;;;6.60;;
7557;SDS011;3820;51.098;13.716;2022-11-15T15:40:18;14.33;;;7.00;;
7557;SDS011;3820;51.098;13.716;2022-11-15T15:42:50;15.60;;;7.07;;
7557;SDS011;3820;51.098;13.716;2022-11-15T15:45:17;21.63;;;7.30;;
7557;SDS011;3820;51.098;13.716;2022-11-15T15:47:44;20.83;;;7.33;;
7557;SDS011;3820;51.098;13.716;2022-11-15T15:50:14;15.90;;;6.50;;
7557;SDS011;3820;51.098;13.716;2022-11-15T15:52:44;17.50;;;7.50;;
7557;SDS011;3820;51.098;13.716;2022-11-15T15:55:10;16.77;;;7.90;;
7557;SDS011;3820;51.098;13.716;2022-11-15T15:57:37;15.63;;;6.97;;
7557;SDS011;3820;51.098;13.716;2022-11-15T16:00:04;16.87;;;7.00;;
7557;SDS011;3820;51.098;13.716;2022-11-15T16:02:31;14.13;;;6.67;;
7557;SDS011;3820;51.098;13.716;2022-11-15T16:05:05;20.87;;;8.27;;
7557;SDS011;3820;51.098;13.716;2022-11-15T16:07:32;16.83;;;7.47;;
7557;SDS011;3820;51.098;13.716;2022-11-15T16:10:00;16.60;;;7.83;;
7557;SDS011;3820;51.098;13.716;2022-11-15T16:12:31;17.33;;;6.73;;
7557;SDS011;3820;51.098;13.716;2022-11-15T16:15:01;18.53;;;7.67;;
7557;SDS011;3820;51.098;13.716;2022-11-15T16:17:30;14.87;;;7.53;;
7557;SDS011;3820;51.098;13.716;2022-11-15T16:20:00;14.53;;;6.90;;
7557;SDS011;3820;51.098;13.716;2022-11-15T16:22:26;14.93;;;7.20;;
7557;SDS011;3820;51.098;13.716;2022-11-15T16:24:55;16.47;;;7.50;;
7557;SDS011;3820;51.098;13.716;2022-11-15T16:27:22;19.47;;;8.03;;
7557;SDS011;3820;51.098;13.716;2022-11-15T16:29:49;13.53;;;6.73;;
7557;SDS011;3820;51.098;13.716;2022-11-15T16:32:15;14.17;;;6.93;;
7557;SDS011;3820;51.098;13.716;2022-11-15T16:34:42;18.80;;;6.87;;
7557;SDS011;3820;51.098;13.716;2022-11-15T16:37:20;15.90;;;7.63;;
7557;SDS011;3820;51.098;13.716;2022-11-15T16:39:48;17.30;;;7.97;;
7557;SDS011;3820;51.098;13.716;2022-11-15T16:42:15;18.10;;;7.80;;
7557;SDS011;3820;51.098;13.716;2022-11-15T16:44:41;16.87;;;6.10;;
7557;SDS011;3820;51.098;13.716;2022-11-15T16:47:17;18.93;;;7.57;;
7557;SDS011;3820;51.098;13.716;2022-11-15T16:49:45;21.73;;;7.27;;